Time;durP1;ratioP1;P1;durP2;ratioP2;P2;SDS_P1;SDS_P2;PMS_P1;PMS_P2;Temp;Humidity;BMP_temperature;BMP_pressure;BME280_temperature;BME280_humidity;BME280_pressure;Samples;Min_cycle;Max_cycle;Signal;HPM_P1;HPM_P2
2022/05/17 00:01:09;;;;;;;25.63;8.77;;;14.90;99.90;;;;;;5089932;28;20051;-90
2022/05/17 00:03:35;;;;;;;23.45;7.97;;;14.80;99.90;;;;;;5073114;28;20122;-89
2022/05/17 00:06:00;;;;;;;27.60;8.82;;;15.00;99.90;;;;;;5072120;28;20768;-90
2022/05/17 00:08:26;;;;;;;27.00;7.40;;;15.20;99.90;;;;;;5088782;28;20132;-88
2022/05/17 00:10:52;;;;;;;21.70;7.97;;;15.00;99.90;;;;;;5071487;28;20043;-88
2022/05/17 00:13:18;;;;;;;27.17;8.63;;;14.80;99.90;;;;;;5089299;28;20036;-90
2022/05/17 00:15:48;;;;;;;27.88;7.70;;;14.70;99.90;;;;;;5072561;28;20044;-89
2022/05/17 00:18:16;;;;;;;36.80;8.93;;;14.70;99.90;;;;;;5072750;28;20059;-90
2022/05/17 00:20:43;;;;;;;31.70;7.85;;;14.70;99.90;;;;;;5068753;28;20044;-90
2022/05/17 00:23:11;;;;;;;29.98;7.57;;;14.60;99.90;;;;;;5068301;28;20554;-89
2022/05/17 00:25:36;;;;;;;26.15;7.88;;;14.50;99.90;;;;;;5052090;28;20094;-89
2022/05/17 00:28:03;;;;;;;23.38;6.95;;;14.70;99.90;;;;;;5050867;28;20036;-89
2022/05/17 00:30:29;;;;;;;26.88;7.07;;;14.50;99.90;;;;;;5068447;28;20037;-90
2022/05/17 00:32:54;;;;;;;25.90;7.07;;;14.30;99.90;;;;;;5051332;28;20074;-89
2022/05/17 00:35:20;;;;;;;26.30;7.00;;;14.70;99.90;;;;;;5068505;28;20048;-89
2022/05/17 00:37:45;;;;;;;31.40;7.03;;;14.40;99.90;;;;;;5068357;28;20072;-88
2022/05/17 00:40:12;;;;;;;25.58;7.53;;;14.40;99.90;;;;;;5051560;28;20447;-88
2022/05/17 00:42:38;;;;;;;26.45;7.32;;;14.30;99.90;;;;;;5068219;28;20126;-87
2022/05/17 00:45:04;;;;;;;24.02;7.18;;;14.30;99.90;;;;;;5067935;28;20464;-89
2022/05/17 00:47:43;;;;;;;27.48;8.23;;;14.30;99.90;;;;;;5067564;28;20052;-87
2022/05/17 00:50:28;;;;;;;28.67;7.53;;;14.30;99.90;;;;;;5050298;28;20040;-88
2022/05/17 00:53:00;;;;;;;20.10;7.25;;;14.30;99.90;;;;;;5070859;28;20071;-88
2022/05/17 00:55:40;;;;;;;24.23;8.03;;;14.30;99.90;;;;;;5087419;28;20554;-89
2022/05/17 00:58:19;;;;;;;28.90;8.40;;;14.30;99.90;;;;;;5086581;28;20044;-89
2022/05/17 01:00:56;;;;;;;23.85;7.93;;;14.20;99.90;;;;;;5087867;28;20088;-88
2022/05/17 01:03:24;;;;;;;27.17;8.27;;;14.20;99.90;;;;;;5070133;28;20048;-88
2022/05/17 01:05:53;;;;;;;22.70;8.02;;;14.50;99.90;;;;;;5070105;28;20040;-87
2022/05/17 01:08:21;;;;;;;22.55;8.32;;;14.40;99.90;;;;;;5070460;28;20562;-87
2022/05/17 01:10:47;;;;;;;24.70;7.50;;;14.20;99.90;;;;;;5070843;28;20047;-88
2022/05/17 01:15:57;;;;;;;31.83;9.05;;;14.10;99.90;;;;;;5091542;28;20224;-88
2022/05/17 01:18:24;;;;;;;28.27;8.63;;;14.00;99.90;;;;;;5074112;28;20498;-88
2022/05/17 01:20:50;;;;;;;30.23;8.27;;;14.10;99.90;;;;;;5090751;28;20212;-89
2022/05/17 01:23:16;;;;;;;25.48;8.93;;;14.10;99.90;;;;;;5074240;28;20040;-88
2022/05/17 01:25:42;;;;;;;24.02;8.60;;;14.00;99.90;;;;;;5074394;28;20067;-89
2022/05/17 01:28:18;;;;;;;32.17;8.68;;;14.00;99.90;;;;;;5091046;28;20092;-88
2022/05/17 01:30:44;;;;;;;24.70;8.88;;;14.00;99.90;;;;;;5075519;28;20047;-88
2022/05/17 01:33:15;;;;;;;29.77;9.25;;;14.10;99.90;;;;;;5091409;28;20070;-89
2022/05/17 01:35:41;;;;;;;27.73;9.23;;;14.00;99.90;;;;;;5074276;28;20097;-88
2022/05/17 01:38:06;;;;;;;37.08;9.32;;;14.10;99.90;;;;;;5090477;28;20043;-89
2022/05/17 01:40:32;;;;;;;29.10;9.43;;;14.10;99.90;;;;;;5090634;28;20044;-89
2022/05/17 01:42:58;;;;;;;34.53;8.68;;;14.00;99.90;;;;;;5074694;28;20051;-88
2022/05/17 01:45:24;;;;;;;35.40;9.07;;;14.00;99.90;;;;;;5090922;28;20051;-88
2022/05/17 01:47:49;;;;;;;30.30;9.88;;;14.00;99.90;;;;;;5073905;28;20450;-86
2022/05/17 01:50:16;;;;;;;31.58;8.70;;;14.00;99.90;;;;;;5090450;28;20123;-88
2022/05/17 01:52:42;;;;;;;28.35;9.20;;;14.00;99.90;;;;;;5075059;28;20535;-91
2022/05/17 01:55:08;;;;;;;32.05;9.15;;;14.00;99.90;;;;;;5091213;28;20143;-88
2022/05/17 01:57:34;;;;;;;32.85;9.07;;;14.00;99.90;;;;;;5090702;28;20123;-87
2022/05/17 01:59:59;;;;;;;26.15;8.43;;;14.00;99.90;;;;;;5073596;28;20146;-89
2022/05/17 02:02:25;;;;;;;28.13;8.65;;;14.10;99.90;;;;;;5091018;28;20540;-89
2022/05/17 02:04:50;;;;;;;29.35;8.55;;;14.00;99.90;;;;;;5091628;28;20684;-89
2022/05/17 02:07:16;;;;;;;28.05;8.70;;;14.00;99.90;;;;;;5091069;28;20419;-88
2022/05/17 02:09:42;;;;;;;28.52;8.57;;;14.00;99.90;;;;;;5073013;28;20040;-88
2022/05/17 02:12:08;;;;;;;29.20;8.70;;;13.90;99.90;;;;;;5073992;28;20488;-89
2022/05/17 02:14:33;;;;;;;36.00;9.45;;;13.90;99.90;;;;;;5090753;28;20055;-88
2022/05/17 02:17:00;;;;;;;26.17;8.50;;;13.90;99.90;;;;;;5073497;28;20043;-88
2022/05/17 02:19:29;;;;;;;28.15;8.88;;;14.30;99.90;;;;;;5073429;28;20337;-88
2022/05/17 02:21:55;;;;;;;23.63;8.07;;;13.90;99.90;;;;;;5073368;28;20055;-88
2022/05/17 02:24:22;;;;;;;29.35;9.55;;;13.70;99.90;;;;;;5073012;28;20499;-89
2022/05/17 02:26:48;;;;;;;27.70;7.72;;;13.70;99.90;;;;;;5074927;28;20117;-88
2022/05/17 02:29:14;;;;;;;32.65;9.77;;;13.70;99.90;;;;;;5072998;28;20101;-88
2022/05/17 02:31:39;;;;;;;28.70;8.63;;;13.70;99.90;;;;;;5090243;28;20495;-90
2022/05/17 02:34:05;;;;;;;30.77;8.82;;;13.70;99.90;;;;;;5073326;28;20076;-88
2022/05/17 02:36:31;;;;;;;24.42;8.63;;;13.70;99.90;;;;;;5074319;28;20086;-88
2022/05/17 02:38:56;;;;;;;24.60;9.15;;;13.90;99.90;;;;;;5074149;28;20082;-90
2022/05/17 02:41:23;;;;;;;28.35;8.18;;;13.70;99.90;;;;;;5090919;28;20056;-89
2022/05/17 02:43:49;;;;;;;30.45;9.52;;;13.80;99.90;;;;;;5073464;28;20044;-89
2022/05/17 02:46:15;;;;;;;25.60;9.55;;;13.60;99.90;;;;;;5073162;28;20040;-88
2022/05/17 02:48:41;;;;;;;25.77;8.02;;;13.50;99.90;;;;;;5073816;28;20040;-88
2022/05/17 02:51:09;;;;;;;28.83;7.75;;;13.40;99.90;;;;;;5071904;28;20399;-89
2022/05/17 02:53:35;;;;;;;27.83;9.57;;;13.60;99.90;;;;;;5090546;28;20054;-89
2022/05/17 02:56:01;;;;;;;22.15;8.07;;;13.40;99.90;;;;;;5090435;28;20040;-89
2022/05/17 02:58:26;;;;;;;25.63;8.48;;;13.40;99.90;;;;;;5074340;28;20107;-90
2022/05/17 03:00:52;;;;;;;25.60;9.25;;;13.40;99.90;;;;;;5093603;28;20083;-89
2022/05/17 03:03:18;;;;;;;27.65;8.80;;;13.40;99.90;;;;;;5093282;28;20043;-89
2022/05/17 03:05:43;;;;;;;30.15;9.00;;;13.40;99.90;;;;;;5093026;28;20097;-89
2022/05/17 03:08:09;;;;;;;30.92;9.00;;;13.40;99.90;;;;;;5076558;28;20515;-88
2022/05/17 03:10:34;;;;;;;24.13;8.32;;;13.40;99.90;;;;;;5092395;28;20399;-87
2022/05/17 03:13:01;;;;;;;32.95;9.18;;;13.60;99.90;;;;;;5092076;28;20032;-88
2022/05/17 03:15:27;;;;;;;27.42;8.77;;;13.50;99.90;;;;;;5092440;28;20090;-89
2022/05/17 03:17:52;;;;;;;26.30;8.18;;;13.40;99.90;;;;;;5076647;28;20065;-88
2022/05/17 03:20:19;;;;;;;28.00;9.25;;;13.40;99.90;;;;;;5074934;28;20039;-88
2022/05/17 03:22:44;;;;;;;34.80;9.18;;;13.40;99.90;;;;;;5075407;28;20483;-88
2022/05/17 03:25:10;;;;;;;27.55;8.95;;;13.40;99.90;;;;;;5092672;28;20064;-87
2022/05/17 03:27:36;;;;;;;25.73;9.13;;;13.40;99.90;;;;;;5092205;28;20047;-88
2022/05/17 03:30:03;;;;;;;37.42;8.88;;;13.50;99.90;;;;;;5092466;28;20044;-88
2022/05/17 03:32:29;;;;;;;29.63;9.68;;;13.30;99.90;;;;;;5074995;28;20043;-88
2022/05/17 03:34:54;;;;;;;25.92;8.10;;;13.30;99.90;;;;;;5075630;28;20138;-89
2022/05/17 03:37:20;;;;;;;21.45;8.63;;;13.30;99.90;;;;;;5093319;28;20546;-90
2022/05/17 03:39:46;;;;;;;23.90;8.55;;;13.30;99.90;;;;;;5076394;28;20844;-89
2022/05/17 03:42:11;;;;;;;26.60;8.63;;;13.30;99.90;;;;;;5075588;28;20382;-88
2022/05/17 03:44:37;;;;;;;27.20;7.97;;;13.30;99.90;;;;;;5075490;28;20039;-88
2022/05/17 03:47:05;;;;;;;27.27;8.25;;;13.20;99.90;;;;;;5091695;28;20126;-89
2022/05/17 03:49:31;;;;;;;26.77;8.52;;;13.10;99.90;;;;;;5092200;28;20039;-87
2022/05/17 03:51:56;;;;;;;22.25;8.32;;;13.20;99.90;;;;;;5092366;28;20100;-88
2022/05/17 03:54:22;;;;;;;28.25;8.40;;;13.00;99.90;;;;;;5091308;28;20070;-89
2022/05/17 03:56:48;;;;;;;21.35;7.85;;;13.00;99.90;;;;;;5075706;28;20050;-89
2022/05/17 03:59:14;;;;;;;24.88;8.60;;;13.10;99.90;;;;;;5073897;28;20054;-88
2022/05/17 04:01:40;;;;;;;21.55;8.32;;;12.90;99.90;;;;;;5075660;28;20051;-88
2022/05/17 04:04:05;;;;;;;20.63;7.85;;;12.90;99.90;;;;;;5074268;28;20075;-88
2022/05/17 04:06:31;;;;;;;20.52;8.10;;;12.90;99.90;;;;;;5075570;28;20138;-89
2022/05/17 04:08:57;;;;;;;33.30;9.20;;;12.90;99.90;;;;;;5075644;28;20062;-88
2022/05/17 04:11:22;;;;;;;27.60;7.80;;;13.50;99.90;;;;;;5092114;28;20047;-89
2022/05/17 04:13:48;;;;;;;23.55;8.27;;;13.00;99.90;;;;;;5092496;28;20051;-89
2022/05/17 04:16:14;;;;;;;27.55;8.32;;;13.20;99.90;;;;;;5091288;28;20440;-89
2022/05/17 04:18:39;;;;;;;25.65;8.07;;;13.00;99.90;;;;;;5088779;28;20078;-88
2022/05/17 04:21:06;;;;;;;28.42;8.85;;;13.00;99.90;;;;;;5054983;28;20044;-89
2022/05/17 04:23:32;;;;;;;25.20;7.63;;;13.00;99.90;;;;;;5055223;28;20072;-89
2022/05/17 04:25:58;;;;;;;22.70;7.93;;;13.50;99.90;;;;;;5055812;28;20083;-91
2022/05/17 04:28:24;;;;;;;27.75;8.73;;;13.20;99.90;;;;;;5056938;28;20044;-89
2022/05/17 04:30:50;;;;;;;22.17;8.00;;;13.30;99.90;;;;;;5054949;28;20040;-89
2022/05/17 04:33:17;;;;;;;23.33;7.90;;;13.80;99.90;;;;;;5075645;28;20040;-91
2022/05/17 04:35:43;;;;;;;27.02;7.82;;;13.60;99.90;;;;;;5078510;28;20039;-87
2022/05/17 04:38:09;;;;;;;26.60;8.70;;;13.90;99.90;;;;;;5076331;28;20036;-90
2022/05/17 04:40:35;;;;;;;27.55;8.20;;;13.80;99.90;;;;;;5075800;28;20043;-89
2022/05/17 04:43:01;;;;;;;26.98;7.25;;;13.80;99.90;;;;;;5076691;28;20105;-88
2022/05/17 04:45:27;;;;;;;26.02;7.60;;;14.00;99.90;;;;;;5093820;28;20096;-90
2022/05/17 04:47:53;;;;;;;29.73;8.02;;;14.20;99.90;;;;;;5079809;28;20150;-89
2022/05/17 04:50:19;;;;;;;23.00;7.15;;;14.30;99.90;;;;;;5080743;28;20188;-90
2022/05/17 04:52:47;;;;;;;25.50;7.90;;;14.50;99.90;;;;;;5080743;28;20091;-89
2022/05/17 04:55:14;;;;;;;22.27;6.63;;;14.70;99.90;;;;;;5096104;28;20108;-89
2022/05/17 04:57:40;;;;;;;22.67;6.65;;;14.80;99.90;;;;;;5078567;28;20405;-89
2022/05/17 05:00:09;;;;;;;22.77;6.47;;;15.00;99.90;;;;;;5094908;28;20155;-89
2022/05/17 05:02:35;;;;;;;19.65;6.68;;;15.10;99.90;;;;;;5095409;28;20560;-90
2022/05/17 05:05:01;;;;;;;18.83;5.63;;;15.20;99.90;;;;;;5094697;28;20043;-89
2022/05/17 05:07:27;;;;;;;26.33;6.28;;;15.40;99.90;;;;;;5080915;28;20372;-88
2022/05/17 05:09:53;;;;;;;25.05;6.43;;;15.40;99.90;;;;;;5074367;28;20837;-88
2022/05/17 05:12:18;;;;;;;23.05;5.68;;;15.60;99.90;;;;;;5073322;28;20040;-87
2022/05/17 05:14:44;;;;;;;20.83;5.53;;;15.60;99.90;;;;;;5057514;28;20548;-89
2022/05/17 05:17:09;;;;;;;25.25;5.82;;;15.50;99.90;;;;;;5057166;28;20040;-89
2022/05/17 05:19:36;;;;;;;19.10;5.60;;;15.60;99.90;;;;;;5074331;28;20062;-88
2022/05/17 05:22:02;;;;;;;20.17;5.55;;;15.60;99.90;;;;;;5074707;28;20044;-89
2022/05/17 05:24:27;;;;;;;23.65;6.20;;;15.60;99.90;;;;;;5057740;28;20126;-88
2022/05/17 05:26:53;;;;;;;29.98;5.72;;;15.70;99.90;;;;;;5057093;28;20103;-88
2022/05/17 05:29:19;;;;;;;21.88;6.07;;;15.70;99.90;;;;;;5073292;28;20117;-88
2022/05/17 05:31:44;;;;;;;21.73;4.85;;;15.80;99.90;;;;;;5074507;28;20044;-87
2022/05/17 05:34:10;;;;;;;17.90;4.95;;;15.60;99.90;;;;;;5073109;28;20044;-88
2022/05/17 05:36:36;;;;;;;21.55;5.47;;;15.60;99.90;;;;;;5073940;28;20123;-88
2022/05/17 05:39:03;;;;;;;19.90;5.40;;;15.60;99.90;;;;;;5073344;28;20048;-88
2022/05/17 05:41:29;;;;;;;20.80;6.07;;;15.60;99.90;;;;;;5074490;28;20055;-88
2022/05/17 05:43:54;;;;;;;25.95;6.07;;;15.50;99.90;;;;;;5056794;28;20040;-87
2022/05/17 05:46:20;;;;;;;21.65;6.18;;;15.50;99.90;;;;;;5072746;28;20043;-88
2022/05/17 05:48:46;;;;;;;21.38;5.82;;;15.50;99.90;;;;;;5073680;28;20077;-88
2022/05/17 05:51:12;;;;;;;26.45;6.50;;;15.60;99.90;;;;;;5073019;28;20047;-88
2022/05/17 05:53:38;;;;;;;19.27;5.60;;;15.70;99.90;;;;;;5057191;28;20040;-88
2022/05/17 05:56:05;;;;;;;21.10;5.15;;;15.90;99.90;;;;;;5075815;28;20190;-88
2022/05/17 05:58:35;;;;;;;22.20;5.32;;;16.00;99.90;;;;;;5075190;28;20109;-88
2022/05/17 06:01:01;;;;;;;19.05;5.85;;;16.10;99.90;;;;;;5052255;28;20048;-89
2022/05/17 06:03:27;;;;;;;20.33;5.30;;;16.20;99.90;;;;;;5033524;28;20120;-87
2022/05/17 06:05:54;;;;;;;25.95;6.38;;;16.30;99.90;;;;;;5050653;28;20114;-89
2022/05/17 06:08:21;;;;;;;22.30;5.03;;;16.40;99.90;;;;;;5049180;28;20048;-88
2022/05/17 06:10:47;;;;;;;21.00;5.43;;;16.40;99.90;;;;;;5034000;28;20420;-87
2022/05/17 06:13:16;;;;;;;20.58;5.07;;;16.50;99.90;;;;;;5050637;28;20041;-87
2022/05/17 06:15:42;;;;;;;20.30;6.43;;;16.50;99.90;;;;;;5032958;28;20053;-87
2022/05/17 06:18:09;;;;;;;20.35;5.38;;;16.50;99.90;;;;;;5033139;28;20052;-88
2022/05/17 06:20:35;;;;;;;17.23;5.43;;;16.50;99.90;;;;;;5049842;28;20041;-88
2022/05/17 06:23:01;;;;;;;18.83;5.00;;;16.60;99.90;;;;;;5033336;28;20064;-90
2022/05/17 06:25:27;;;;;;;21.13;4.97;;;16.60;99.90;;;;;;5068215;28;20408;-87
2022/05/17 06:27:52;;;;;;;18.80;5.35;;;16.70;99.90;;;;;;5034681;28;20045;-88
2022/05/17 06:30:18;;;;;;;20.67;5.13;;;16.80;99.90;;;;;;5054065;28;20029;-88
2022/05/17 06:32:45;;;;;;;14.93;4.55;;;16.90;99.90;;;;;;5047364;28;20037;-88
2022/05/17 06:35:12;;;;;;;24.48;5.13;;;17.00;99.90;;;;;;5037434;28;20380;-89
2022/05/17 06:37:38;;;;;;;19.45;4.60;;;17.10;99.90;;;;;;5039791;28;20037;-88
2022/05/17 06:40:06;;;;;;;18.83;4.85;;;17.30;99.90;;;;;;5043499;28;20041;-88
2022/05/17 06:42:32;;;;;;;18.25;5.10;;;17.40;99.90;;;;;;5056705;28;20046;-89
2022/05/17 06:44:58;;;;;;;17.98;4.85;;;17.50;99.90;;;;;;5038111;28;20058;-88
2022/05/17 06:47:24;;;;;;;19.20;4.93;;;17.60;99.90;;;;;;5061976;28;20048;-86
2022/05/17 06:49:50;;;;;;;19.15;4.68;;;17.70;99.90;;;;;;5037163;28;20127;-85
2022/05/17 06:52:16;;;;;;;15.18;4.30;;;17.80;99.90;;;;;;5072144;28;20119;-88
2022/05/17 06:54:43;;;;;;;19.52;5.13;;;17.80;99.90;;;;;;5050432;28;20033;-86
2022/05/17 06:57:13;;;;;;;14.88;3.85;;;17.80;99.90;;;;;;5054708;28;20140;-86
2022/05/17 06:59:40;;;;;;;16.20;4.30;;;17.80;99.90;;;;;;5058553;28;20048;-84
2022/05/17 07:02:07;;;;;;;14.35;4.07;;;17.80;99.90;;;;;;5069555;28;20054;-85
2022/05/17 07:04:34;;;;;;;16.00;4.40;;;17.90;99.90;;;;;;5071476;28;20074;-84
2022/05/17 07:07:01;;;;;;;18.60;4.38;;;18.00;99.90;;;;;;5069114;28;20047;-84
2022/05/17 07:09:28;;;;;;;16.73;3.80;;;18.00;99.90;;;;;;5057826;28;20040;-85
2022/05/17 07:14:38;;;;;;;16.75;3.97;;;18.10;99.90;;;;;;5077186;28;20048;-86
2022/05/17 07:17:06;;;;;;;15.32;3.78;;;18.20;99.90;;;;;;5085280;28;20078;-85
2022/05/17 07:19:33;;;;;;;15.57;3.53;;;18.20;99.90;;;;;;5061676;28;20148;-87
2022/05/17 07:22:00;;;;;;;15.82;4.10;;;18.20;99.90;;;;;;5089219;28;20051;-92
2022/05/17 07:24:26;;;;;;;18.08;3.95;;;18.20;99.90;;;;;;5067030;28;20074;-86
2022/05/17 07:26:52;;;;;;;18.42;3.80;;;18.30;99.90;;;;;;5092115;28;20035;-85
2022/05/17 07:29:17;;;;;;;19.65;3.90;;;18.40;99.90;;;;;;5073687;28;20032;-85
2022/05/17 07:31:43;;;;;;;18.98;4.35;;;18.50;99.90;;;;;;5083037;28;20387;-87
2022/05/17 07:34:09;;;;;;;15.10;3.72;;;18.60;99.90;;;;;;5068370;28;20057;-91
2022/05/17 07:36:35;;;;;;;14.60;3.33;;;18.70;99.90;;;;;;5077542;28;20036;-86
2022/05/17 07:39:00;;;;;;;13.60;3.78;;;18.80;99.90;;;;;;5082884;28;20044;-88
2022/05/17 07:41:26;;;;;;;14.65;4.57;;;18.80;99.90;;;;;;5068791;28;20076;-87
2022/05/17 07:43:52;;;;;;;16.50;4.10;;;18.90;99.90;;;;;;5068881;28;20040;-87
2022/05/17 07:46:17;;;;;;;13.77;4.03;;;19.10;99.90;;;;;;5068793;28;20039;-88
2022/05/17 07:48:43;;;;;;;13.98;3.85;;;19.10;99.90;;;;;;5087305;28;20043;-86
2022/05/17 07:51:09;;;;;;;19.52;4.50;;;19.10;99.90;;;;;;5069696;28;20069;-86
2022/05/17 07:53:36;;;;;;;15.18;3.67;;;19.10;99.90;;;;;;5086434;28;20044;-86
2022/05/17 07:56:04;;;;;;;12.43;3.70;;;19.10;99.90;;;;;;5068550;28;20040;-86
2022/05/17 07:58:30;;;;;;;20.52;4.10;;;19.10;99.90;;;;;;5068443;28;20799;-86
2022/05/17 08:00:55;;;;;;;12.90;4.63;;;19.20;99.90;;;;;;5068070;28;20083;-85
2022/05/17 08:03:21;;;;;;;17.45;3.55;;;19.30;99.90;;;;;;5065677;28;20043;-87
2022/05/17 08:05:47;;;;;;;16.98;4.32;;;19.30;99.90;;;;;;5063726;28;20044;-86
2022/05/17 08:08:13;;;;;;;15.45;3.72;;;19.40;99.90;;;;;;5056227;28;20064;-86
2022/05/17 08:10:40;;;;;;;19.48;4.50;;;19.50;99.90;;;;;;5052812;28;20044;-86
2022/05/17 08:13:07;;;;;;;14.80;3.58;;;19.60;99.90;;;;;;5070428;28;20044;-85
2022/05/17 08:15:33;;;;;;;21.98;4.60;;;19.60;99.90;;;;;;5076893;28;20075;-88
2022/05/17 08:18:01;;;;;;;15.00;4.85;;;19.60;99.90;;;;;;5064387;28;20044;-87
2022/05/17 08:20:28;;;;;;;19.08;4.88;;;19.70;99.90;;;;;;5066522;28;20063;-88
2022/05/17 08:22:53;;;;;;;14.75;4.55;;;19.70;99.90;;;;;;5070781;28;20105;-88
2022/05/17 08:28:05;;;;;;;16.83;3.53;;;19.90;99.90;;;;;;5085589;28;20039;-86
2022/05/17 08:30:32;;;;;;;15.40;3.30;;;19.90;99.90;;;;;;5086985;28;20044;-87
2022/05/17 08:33:16;;;;;;;17.70;3.40;;;20.00;99.90;;;;;;5066488;28;20132;-86
2022/05/17 08:35:45;;;;;;;19.58;3.83;;;20.00;99.90;;;;;;5049854;28;20088;-87
2022/05/17 08:38:13;;;;;;;13.68;4.07;;;20.10;99.90;;;;;;5049459;28;20083;-87
2022/05/17 08:40:59;;;;;;;11.43;3.67;;;20.10;99.90;;;;;;5050171;28;20132;-86
2022/05/17 08:43:41;;;;;;;13.95;4.03;;;20.20;99.90;;;;;;5065084;28;20133;-87
2022/05/17 08:46:23;;;;;;;14.80;4.33;;;20.20;99.90;;;;;;5049965;28;20049;-88
2022/05/17 08:48:52;;;;;;;16.70;4.50;;;20.20;99.90;;;;;;5066780;28;20306;-87
2022/05/17 08:51:28;;;;;;;13.32;3.75;;;20.30;99.90;;;;;;5048226;28;20066;-87
2022/05/17 08:53:54;;;;;;;17.95;4.25;;;20.40;99.90;;;;;;5066781;28;20521;-86
2022/05/17 08:56:20;;;;;;;16.85;4.45;;;20.50;99.90;;;;;;5048461;28;20518;-87
2022/05/17 08:58:50;;;;;;;13.48;3.40;;;20.40;99.90;;;;;;5067971;28;20052;-87
2022/05/17 09:01:25;;;;;;;13.10;3.75;;;20.40;99.90;;;;;;5052165;28;20063;-87
2022/05/17 09:04:14;;;;;;;18.08;4.00;;;20.30;99.90;;;;;;5052619;28;20040;-87
2022/05/17 09:07:00;;;;;;;17.88;4.80;;;20.30;99.90;;;;;;5052801;28;20048;-87
2022/05/17 09:09:33;;;;;;;14.27;3.90;;;20.40;99.90;;;;;;5052523;28;20198;-87
2022/05/17 09:12:12;;;;;;;13.25;4.22;;;20.50;99.90;;;;;;5052313;28;20052;-87
2022/05/17 09:14:44;;;;;;;15.65;3.85;;;20.60;99.90;;;;;;5054406;28;20096;-86
2022/05/17 09:17:14;;;;;;;16.58;4.32;;;20.80;99.90;;;;;;5051795;28;20052;-87
2022/05/17 09:19:40;;;;;;;12.63;4.32;;;21.00;99.90;;;;;;5051653;28;20059;-86
2022/05/17 09:22:06;;;;;;;14.80;4.47;;;21.20;99.90;;;;;;5079004;28;20048;-86
2022/05/17 09:24:48;;;;;;;14.77;4.15;;;21.30;99.90;;;;;;5054158;28;20059;-87
2022/05/17 09:27:23;;;;;;;21.40;4.63;;;21.30;99.90;;;;;;5069279;28;20075;-87
2022/05/17 09:29:53;;;;;;;16.40;3.95;;;21.30;99.90;;;;;;5052346;28;20092;-86
2022/05/17 09:32:30;;;;;;;12.73;3.50;;;21.40;99.90;;;;;;5052658;28;20044;-87
2022/05/17 09:35:01;;;;;;;14.02;3.28;;;21.40;99.90;;;;;;5072424;28;20131;-86
2022/05/17 09:37:34;;;;;;;12.45;2.42;;;21.50;99.90;;;;;;5056212;28;20505;-87
2022/05/17 09:40:01;;;;;;;;;;;21.30;99.90;;;;;;5055801;28;20048;-87
2022/05/17 09:42:35;;;;;;;13.32;3.65;;;21.10;99.90;;;;;;5072582;28;19930;-87
2022/05/17 09:45:05;;;;;;;11.15;3.28;;;21.30;99.90;;;;;;5055501;28;20478;-86
2022/05/17 09:47:33;;;;;;;11.80;3.65;;;21.50;99.90;;;;;;5073241;28;20047;-87
2022/05/17 09:53:03;;;;;;;11.90;3.42;;;21.70;99.90;;;;;;5071973;28;20048;-86
2022/05/17 09:55:32;;;;;;;12.63;3.00;;;21.70;99.90;;;;;;5056366;28;20395;-87
2022/05/17 09:58:10;;;;;;;10.38;3.17;;;21.70;99.90;;;;;;5072186;28;20052;-87
2022/05/17 10:00:41;;;;;;;13.68;3.25;;;22.00;99.90;;;;;;5072092;28;20377;-86
2022/05/17 10:03:25;;;;;;;8.90;2.90;;;22.10;99.90;;;;;;5055014;28;20055;-87
2022/05/17 10:05:58;;;;;;;17.80;3.40;;;22.20;99.90;;;;;;5072288;28;20083;-87
2022/05/17 10:08:28;;;;;;;12.38;3.15;;;22.20;99.90;;;;;;5054606;28;20050;-86
2022/05/17 10:11:12;;;;;;;10.57;2.75;;;22.10;99.90;;;;;;5072660;28;20402;-86
2022/05/17 10:14:11;;;;;;;13.18;3.22;;;22.20;99.90;;;;;;5071757;28;20133;-86
2022/05/17 10:16:47;;;;;;;14.95;3.35;;;22.20;99.90;;;;;;5074194;28;20082;-86
2022/05/17 10:19:26;;;;;;;11.30;3.00;;;22.30;99.90;;;;;;5054883;28;20078;-86
2022/05/17 10:21:59;;;;;;;12.13;2.67;;;22.50;99.90;;;;;;5056567;27;20052;-85
2022/05/17 10:24:33;;;;;;;;;;;22.80;99.90;;;;;;5084283;27;20127;-86
2022/05/17 10:27:07;;;;;;;9.98;3.15;;;22.90;99.90;;;;;;5087563;27;19985;-87
2022/05/17 10:29:45;;;;;;;11.40;3.03;;;23.00;99.90;;;;;;5056643;28;20051;-87
2022/05/17 10:32:23;;;;;;;9.70;2.22;;;22.90;99.90;;;;;;5093599;27;20055;-87
2022/05/17 10:35:00;;;;;;;12.20;2.97;;;22.70;99.90;;;;;;5111356;27;20072;-87
2022/05/17 10:37:33;;;;;;;10.85;2.83;;;22.80;99.90;;;;;;5085808;27;20087;-86
2022/05/17 10:40:04;;;;;;;9.48;2.60;;;22.90;99.90;;;;;;5091895;27;20372;-87
2022/05/17 10:42:30;;;;;;;14.30;2.95;;;23.10;99.90;;;;;;5076554;27;20480;-87
2022/05/17 10:44:58;;;;;;;10.00;2.53;;;23.20;99.90;;;;;;5094455;27;20039;-86
2022/05/17 10:47:37;;;;;;;9.95;2.35;;;23.30;99.90;;;;;;5096714;28;20047;-87
2022/05/17 10:50:28;;;;;;;13.55;2.17;;;23.30;99.90;;;;;;5094058;27;20067;-88
2022/05/17 10:53:10;;;;;;;10.45;2.00;;;23.20;99.90;;;;;;5095796;27;20036;-88
2022/05/17 10:56:01;;;;;;;11.87;2.40;;;23.00;99.90;;;;;;5102303;28;20050;-87
2022/05/17 10:58:50;;;;;;;10.80;2.83;;;22.90;99.90;;;;;;5082186;27;20383;-87
2022/05/17 11:01:31;;;;;;;14.23;2.65;;;23.00;99.90;;;;;;5095836;27;20548;-88
2022/05/17 11:04:05;;;;;;;10.15;2.50;;;23.00;99.90;;;;;;5111573;27;20039;-87
2022/05/17 11:06:40;;;;;;;12.70;2.83;;;23.10;99.90;;;;;;5076755;28;20039;-87
2022/05/17 11:09:10;;;;;;;9.82;2.20;;;23.20;99.90;;;;;;5074209;28;20040;-86
2022/05/17 11:11:53;;;;;;;12.95;2.03;;;23.30;99.90;;;;;;5090892;27;20050;-88
2022/05/17 11:14:30;;;;;;;10.65;1.80;;;23.60;99.90;;;;;;5053660;28;20389;-86
2022/05/17 11:17:23;;;;;;;10.68;2.47;;;23.70;99.90;;;;;;5094429;27;20499;-87
2022/05/17 11:20:10;;;;;;;10.23;2.22;;;23.80;99.90;;;;;;5084246;27;20043;-87
2022/05/17 11:22:55;;;;;;;7.43;1.88;;;23.80;99.90;;;;;;5102394;27;20108;-87
2022/05/17 11:25:39;;;;;;;11.23;2.83;;;23.90;99.90;;;;;;5090070;28;20048;-87
2022/05/17 11:28:20;;;;;;;10.02;2.50;;;24.10;99.90;;;;;;5080933;27;20038;-87
2022/05/17 11:31:00;;;;;;;13.35;2.47;;;24.10;99.90;;;;;;5075274;27;20398;-87
2022/05/17 11:33:31;;;;;;;16.70;2.33;;;24.00;99.90;;;;;;5083996;27;20044;-87
2022/05/17 11:36:03;;;;;;;12.68;2.63;;;24.00;99.90;;;;;;5090550;28;20162;-88
2022/05/17 11:38:32;;;;;;;9.68;2.47;;;24.00;99.90;;;;;;5093644;28;20522;-87
2022/05/17 11:41:05;;;;;;;10.00;2.70;;;23.90;99.90;;;;;;5081542;27;20533;-87
2022/05/17 11:43:44;;;;;;;12.98;2.70;;;23.80;99.90;;;;;;5070350;28;20036;-88
2022/05/17 11:46:28;;;;;;;10.30;2.17;;;23.70;99.90;;;;;;5105129;28;20062;-88
2022/05/17 11:48:58;;;;;;;14.27;2.63;;;23.50;99.90;;;;;;5082028;28;20043;-87
2022/05/17 11:51:29;;;;;;;18.50;2.40;;;23.40;99.90;;;;;;5074081;28;20126;-86
2022/05/17 11:53:56;;;;;;;12.35;2.53;;;23.50;99.90;;;;;;5075458;28;20043;-86
2022/05/17 11:56:24;;;;;;;9.77;2.17;;;23.80;99.90;;;;;;5096141;28;20047;-87
2022/05/17 11:58:53;;;;;;;10.27;2.38;;;23.90;99.90;;;;;;5104052;27;20051;-88
2022/05/17 12:01:45;;;;;;;9.65;1.90;;;24.20;99.20;;;;;;5085949;27;20066;-90
2022/05/17 12:04:20;;;;;;;10.23;2.60;;;24.30;97.30;;;;;;5085991;27;20486;-90
2022/05/17 12:06:49;;;;;;;28.40;2.00;;;24.50;95.00;;;;;;5114039;27;20043;-91
2022/05/17 12:09:29;;;;;;;9.98;1.85;;;24.60;96.10;;;;;;5096937;27;20045;-91
2022/05/17 12:12:30;;;;;;;7.95;1.60;;;24.80;92.70;;;;;;5097528;27;20708;-90
2022/05/17 12:15:20;;;;;;;10.30;1.67;;;24.90;93.80;;;;;;5113967;27;20043;-93
2022/05/17 12:17:47;;;;;;;13.82;2.30;;;24.90;92.30;;;;;;5114780;27;20089;-91
2022/05/17 12:20:27;;;;;;;9.47;1.90;;;24.90;90.30;;;;;;5113581;28;20047;-91
2022/05/17 12:23:22;;;;;;;7.50;1.70;;;24.80;86.00;;;;;;5096958;27;20143;-91
2022/05/17 12:25:55;;;;;;;9.77;1.80;;;24.60;74.10;;;;;;5114102;27;20080;-91
2022/05/17 12:28:23;;;;;;;7.35;1.50;;;24.60;78.30;;;;;;5096056;27;20711;-90
2022/05/17 12:30:53;;;;;;;8.55;1.65;;;24.60;84.70;;;;;;5099275;28;20031;-91
2022/05/17 12:33:26;;;;;;;5.57;1.20;;;24.70;82.60;;;;;;5096695;28;20126;-91
2022/05/17 12:35:54;;;;;;;8.82;1.83;;;24.80;81.60;;;;;;5093613;28;20050;-90
2022/05/17 12:44:06;;;;;;;6.63;1.42;;;24.90;79.30;;;;;;5094388;28;20044;-92
2022/05/17 12:46:36;;;;;;;11.27;1.83;;;24.90;83.90;;;;;;5077126;28;20479;-92
2022/05/17 12:49:28;;;;;;;7.72;1.70;;;24.80;92.10;;;;;;5092807;28;20088;-92
2022/05/17 12:51:58;;;;;;;9.88;1.70;;;24.90;76.90;;;;;;5077040;28;20050;-92
2022/05/17 12:54:27;;;;;;;7.03;1.48;;;24.90;88.30;;;;;;5076291;28;20108;-91
2022/05/17 12:56:53;;;;;;;7.80;1.40;;;25.00;87.90;;;;;;5094502;28;20131;-91
2022/05/17 12:59:29;;;;;;;7.57;1.60;;;25.00;89.70;;;;;;5075339;28;20044;-90
2022/05/17 13:01:58;;;;;;;8.90;1.85;;;25.10;87.00;;;;;;5082437;28;20515;-93
2022/05/17 13:04:29;;;;;;;9.75;1.70;;;25.10;92.40;;;;;;5076058;28;20474;-91
2022/05/17 13:07:11;;;;;;;11.10;1.80;;;25.20;87.10;;;;;;5077387;28;20081;-92